sensor_id;sensor_type;location;lat;lon;timestamp;P1;durP1;ratioP1;P2;durP2;ratioP2
39188;SDS011;24915;50.858;4.376;2022-12-05T00:01:24;105.13;;;45.15;;
39188;SDS011;24915;50.858;4.376;2022-12-05T00:03:56;101.63;;;42.83;;
39188;SDS011;24915;50.858;4.376;2022-12-05T00:06:25;103.57;;;43.47;;
39188;SDS011;24915;50.858;4.376;2022-12-05T00:08:51;94.85;;;43.47;;
39188;SDS011;24915;50.858;4.376;2022-12-05T00:11:18;107.00;;;46.08;;
39188;SDS011;24915;50.858;4.376;2022-12-05T00:13:46;100.65;;;43.45;;
39188;SDS011;24915;50.858;4.376;2022-12-05T00:16:13;97.32;;;42.92;;
39188;SDS011;24915;50.858;4.376;2022-12-05T00:18:40;103.43;;;43.97;;
39188;SDS011;24915;50.858;4.376;2022-12-05T00:21:08;104.28;;;42.42;;
39188;SDS011;24915;50.858;4.376;2022-12-05T00:23:37;101.50;;;43.60;;
39188;SDS011;24915;50.858;4.376;2022-12-05T00:26:03;102.97;;;42.85;;
39188;SDS011;24915;50.858;4.376;2022-12-05T00:28:29;98.75;;;40.85;;
39188;SDS011;24915;50.858;4.376;2022-12-05T00:31:05;106.18;;;41.92;;
39188;SDS011;24915;50.858;4.376;2022-12-05T00:33:36;105.38;;;41.58;;
39188;SDS011;24915;50.858;4.376;2022-12-05T00:36:06;104.22;;;41.05;;
39188;SDS011;24915;50.858;4.376;2022-12-05T00:38:34;99.43;;;40.25;;
39188;SDS011;24915;50.858;4.376;2022-12-05T00:41:07;94.93;;;39.72;;
39188;SDS011;24915;50.858;4.376;2022-12-05T00:43:35;95.93;;;40.95;;
39188;SDS011;24915;50.858;4.376;2022-12-05T00:46:10;102.15;;;41.38;;
39188;SDS011;24915;50.858;4.376;2022-12-05T00:48:38;88.57;;;37.53;;
39188;SDS011;24915;50.858;4.376;2022-12-05T00:51:11;95.85;;;39.20;;
39188;SDS011;24915;50.858;4.376;2022-12-05T00:53:38;89.55;;;38.10;;
39188;SDS011;24915;50.858;4.376;2022-12-05T00:56:05;89.57;;;37.92;;
39188;SDS011;24915;50.858;4.376;2022-12-05T00:58:33;88.72;;;38.20;;
39188;SDS011;24915;50.858;4.376;2022-12-05T01:01:06;94.68;;;38.67;;
39188;SDS011;24915;50.858;4.376;2022-12-05T01:03:36;99.15;;;38.67;;
39188;SDS011;24915;50.858;4.376;2022-12-05T01:06:03;92.38;;;39.00;;
39188;SDS011;24915;50.858;4.376;2022-12-05T01:08:31;88.78;;;39.10;;
39188;SDS011;24915;50.858;4.376;2022-12-05T01:10:58;86.18;;;36.67;;
39188;SDS011;24915;50.858;4.376;2022-12-05T01:13:24;95.00;;;38.85;;
39188;SDS011;24915;50.858;4.376;2022-12-05T01:15:51;84.45;;;37.42;;
39188;SDS011;24915;50.858;4.376;2022-12-05T01:18:17;89.07;;;38.35;;
39188;SDS011;24915;50.858;4.376;2022-12-05T01:20:44;96.53;;;37.60;;
39188;SDS011;24915;50.858;4.376;2022-12-05T01:23:10;92.90;;;38.30;;
39188;SDS011;24915;50.858;4.376;2022-12-05T01:25:40;82.18;;;38.13;;
39188;SDS011;24915;50.858;4.376;2022-12-05T01:28:07;84.80;;;37.05;;
39188;SDS011;24915;50.858;4.376;2022-12-05T01:30:37;89.78;;;37.90;;
39188;SDS011;24915;50.858;4.376;2022-12-05T01:33:04;91.43;;;38.63;;
39188;SDS011;24915;50.858;4.376;2022-12-05T01:35:31;87.32;;;37.25;;
39188;SDS011;24915;50.858;4.376;2022-12-05T01:38:01;93.43;;;37.78;;
39188;SDS011;24915;50.858;4.376;2022-12-05T01:40:27;91.82;;;38.75;;
39188;SDS011;24915;50.858;4.376;2022-12-05T01:42:53;87.72;;;37.83;;
39188;SDS011;24915;50.858;4.376;2022-12-05T01:45:22;91.32;;;37.92;;
39188;SDS011;24915;50.858;4.376;2022-12-05T01:50:32;94.03;;;37.95;;
39188;SDS011;24915;50.858;4.376;2022-12-05T01:52:59;95.28;;;38.63;;
39188;SDS011;24915;50.858;4.376;2022-12-05T01:55:26;93.72;;;39.45;;
39188;SDS011;24915;50.858;4.376;2022-12-05T01:57:52;88.00;;;40.60;;
39188;SDS011;24915;50.858;4.376;2022-12-05T02:00:18;100.60;;;41.00;;
39188;SDS011;24915;50.858;4.376;2022-12-05T02:02:46;95.50;;;39.58;;
39188;SDS011;24915;50.858;4.376;2022-12-05T02:05:20;100.72;;;40.15;;
39188;SDS011;24915;50.858;4.376;2022-12-05T02:07:52;91.40;;;39.15;;
39188;SDS011;24915;50.858;4.376;2022-12-05T02:10:18;100.28;;;40.85;;
39188;SDS011;24915;50.858;4.376;2022-12-05T02:12:44;103.40;;;40.75;;
39188;SDS011;24915;50.858;4.376;2022-12-05T02:15:17;98.93;;;38.40;;
39188;SDS011;24915;50.858;4.376;2022-12-05T02:23:34;99.10;;;39.33;;
39188;SDS011;24915;50.858;4.376;2022-12-05T02:26:16;99.25;;;41.00;;
39188;SDS011;24915;50.858;4.376;2022-12-05T02:29:11;98.53;;;40.10;;
39188;SDS011;24915;50.858;4.376;2022-12-05T02:37:33;106.75;;;40.97;;
39188;SDS011;24915;50.858;4.376;2022-12-05T02:39:57;104.88;;;41.35;;
39188;SDS011;24915;50.858;4.376;2022-12-05T02:42:35;107.00;;;41.45;;
39188;SDS011;24915;50.858;4.376;2022-12-05T02:45:12;111.28;;;42.28;;
39188;SDS011;24915;50.858;4.376;2022-12-05T02:47:45;105.57;;;41.90;;
39188;SDS011;24915;50.858;4.376;2022-12-05T02:50:16;102.47;;;41.65;;
39188;SDS011;24915;50.858;4.376;2022-12-05T02:52:46;108.93;;;42.45;;
39188;SDS011;24915;50.858;4.376;2022-12-05T02:55:15;114.97;;;41.28;;
39188;SDS011;24915;50.858;4.376;2022-12-05T02:57:43;113.55;;;40.17;;
39188;SDS011;24915;50.858;4.376;2022-12-05T03:00:13;108.07;;;43.50;;
39188;SDS011;24915;50.858;4.376;2022-12-05T03:02:39;107.25;;;42.85;;
39188;SDS011;24915;50.858;4.376;2022-12-05T03:07:47;106.22;;;41.72;;
39188;SDS011;24915;50.858;4.376;2022-12-05T03:10:16;113.30;;;42.47;;
39188;SDS011;24915;50.858;4.376;2022-12-05T03:12:47;108.55;;;41.78;;
39188;SDS011;24915;50.858;4.376;2022-12-05T03:15:18;100.90;;;39.65;;
39188;SDS011;24915;50.858;4.376;2022-12-05T03:17:59;103.97;;;40.83;;
39188;SDS011;24915;50.858;4.376;2022-12-05T03:20:33;111.20;;;41.47;;
39188;SDS011;24915;50.858;4.376;2022-12-05T03:23:13;110.80;;;41.40;;
39188;SDS011;24915;50.858;4.376;2022-12-05T03:25:53;101.28;;;40.28;;
39188;SDS011;24915;50.858;4.376;2022-12-05T03:28:46;97.18;;;41.25;;
39188;SDS011;24915;50.858;4.376;2022-12-05T03:31:18;100.13;;;40.90;;
39188;SDS011;24915;50.858;4.376;2022-12-05T03:33:53;105.35;;;42.08;;
39188;SDS011;24915;50.858;4.376;2022-12-05T03:36:26;102.40;;;40.65;;
39188;SDS011;24915;50.858;4.376;2022-12-05T03:39:04;110.53;;;42.10;;
39188;SDS011;24915;50.858;4.376;2022-12-05T03:41:33;103.50;;;39.63;;
39188;SDS011;24915;50.858;4.376;2022-12-05T03:52:08;96.15;;;40.08;;
39188;SDS011;24915;50.858;4.376;2022-12-05T03:54:47;88.80;;;38.45;;
39188;SDS011;24915;50.858;4.376;2022-12-05T03:57:21;93.45;;;39.60;;
39188;SDS011;24915;50.858;4.376;2022-12-05T04:00:13;100.97;;;39.67;;
39188;SDS011;24915;50.858;4.376;2022-12-05T04:03:04;93.15;;;38.50;;
39188;SDS011;24915;50.858;4.376;2022-12-05T04:08:15;86.00;;;36.72;;
39188;SDS011;24915;50.858;4.376;2022-12-05T04:10:49;87.15;;;37.60;;
39188;SDS011;24915;50.858;4.376;2022-12-05T04:16:10;83.60;;;36.63;;
39188;SDS011;24915;50.858;4.376;2022-12-05T04:18:57;96.43;;;38.55;;
39188;SDS011;24915;50.858;4.376;2022-12-05T04:21:38;83.13;;;37.35;;
39188;SDS011;24915;50.858;4.376;2022-12-05T04:24:12;82.75;;;35.45;;
39188;SDS011;24915;50.858;4.376;2022-12-05T04:27:49;80.60;;;35.73;;
39188;SDS011;24915;50.858;4.376;2022-12-05T04:30:07;75.63;;;32.85;;
39188;SDS011;24915;50.858;4.376;2022-12-05T04:32:49;87.20;;;35.17;;
39188;SDS011;24915;50.858;4.376;2022-12-05T04:38:14;77.68;;;34.40;;
39188;SDS011;24915;50.858;4.376;2022-12-05T04:40:48;78.57;;;34.70;;
39188;SDS011;24915;50.858;4.376;2022-12-05T04:43:21;76.13;;;33.88;;
39188;SDS011;24915;50.858;4.376;2022-12-05T04:45:48;63.75;;;31.52;;
39188;SDS011;24915;50.858;4.376;2022-12-05T04:48:16;73.13;;;34.20;;
39188;SDS011;24915;50.858;4.376;2022-12-05T04:50:46;81.72;;;34.78;;
39188;SDS011;24915;50.858;4.376;2022-12-05T04:53:13;76.95;;;34.15;;
39188;SDS011;24915;50.858;4.376;2022-12-05T04:55:42;75.03;;;33.97;;
39188;SDS011;24915;50.858;4.376;2022-12-05T05:01:26;72.78;;;33.78;;
39188;SDS011;24915;50.858;4.376;2022-12-05T05:06:13;74.05;;;33.42;;
39188;SDS011;24915;50.858;4.376;2022-12-05T05:08:52;66.20;;;33.10;;
39188;SDS011;24915;50.858;4.376;2022-12-05T05:13:47;77.30;;;34.65;;
39188;SDS011;24915;50.858;4.376;2022-12-05T05:16:23;77.63;;;34.67;;
39188;SDS011;24915;50.858;4.376;2022-12-05T05:18:50;80.50;;;35.65;;
39188;SDS011;24915;50.858;4.376;2022-12-05T05:21:22;80.63;;;37.63;;
39188;SDS011;24915;50.858;4.376;2022-12-05T05:23:53;88.22;;;37.42;;
39188;SDS011;24915;50.858;4.376;2022-12-05T05:26:19;81.57;;;36.55;;
39188;SDS011;24915;50.858;4.376;2022-12-05T05:28:46;86.30;;;36.85;;
39188;SDS011;24915;50.858;4.376;2022-12-05T05:31:13;87.88;;;38.67;;
39188;SDS011;24915;50.858;4.376;2022-12-05T05:33:39;87.85;;;36.45;;
39188;SDS011;24915;50.858;4.376;2022-12-05T05:38:41;84.93;;;38.17;;
39188;SDS011;24915;50.858;4.376;2022-12-05T05:41:19;86.93;;;38.03;;
39188;SDS011;24915;50.858;4.376;2022-12-05T05:43:52;90.75;;;37.40;;
39188;SDS011;24915;50.858;4.376;2022-12-05T05:46:19;91.35;;;38.70;;
39188;SDS011;24915;50.858;4.376;2022-12-05T05:48:47;91.22;;;37.83;;
39188;SDS011;24915;50.858;4.376;2022-12-05T05:51:13;90.05;;;39.03;;
39188;SDS011;24915;50.858;4.376;2022-12-05T05:53:40;84.20;;;38.97;;
39188;SDS011;24915;50.858;4.376;2022-12-05T05:56:06;93.90;;;39.15;;
39188;SDS011;24915;50.858;4.376;2022-12-05T05:58:37;93.07;;;39.63;;
39188;SDS011;24915;50.858;4.376;2022-12-05T06:01:03;87.65;;;40.05;;
39188;SDS011;24915;50.858;4.376;2022-12-05T06:03:30;93.28;;;38.83;;
39188;SDS011;24915;50.858;4.376;2022-12-05T06:05:56;87.75;;;38.67;;
39188;SDS011;24915;50.858;4.376;2022-12-05T06:08:23;94.15;;;39.90;;
39188;SDS011;24915;50.858;4.376;2022-12-05T06:10:49;81.10;;;37.50;;
39188;SDS011;24915;50.858;4.376;2022-12-05T06:13:14;95.30;;;38.65;;
39188;SDS011;24915;50.858;4.376;2022-12-05T06:15:40;96.80;;;39.58;;
39188;SDS011;24915;50.858;4.376;2022-12-05T06:18:05;79.47;;;35.45;;
39188;SDS011;24915;50.858;4.376;2022-12-05T06:20:31;88.28;;;37.92;;
39188;SDS011;24915;50.858;4.376;2022-12-05T06:22:57;89.05;;;39.15;;
39188;SDS011;24915;50.858;4.376;2022-12-05T06:25:22;87.28;;;38.10;;
39188;SDS011;24915;50.858;4.376;2022-12-05T06:27:48;97.68;;;38.70;;
39188;SDS011;24915;50.858;4.376;2022-12-05T06:30:13;92.00;;;40.00;;
39188;SDS011;24915;50.858;4.376;2022-12-05T06:32:39;90.45;;;38.47;;
39188;SDS011;24915;50.858;4.376;2022-12-05T06:35:05;93.45;;;40.70;;
39188;SDS011;24915;50.858;4.376;2022-12-05T06:37:39;92.25;;;38.70;;
39188;SDS011;24915;50.858;4.376;2022-12-05T06:40:06;84.05;;;37.42;;
39188;SDS011;24915;50.858;4.376;2022-12-05T06:42:32;88.63;;;39.28;;
39188;SDS011;24915;50.858;4.376;2022-12-05T06:44:57;89.82;;;38.40;;
39188;SDS011;24915;50.858;4.376;2022-12-05T06:47:23;83.82;;;36.35;;
39188;SDS011;24915;50.858;4.376;2022-12-05T06:49:48;92.85;;;38.15;;
39188;SDS011;24915;50.858;4.376;2022-12-05T06:52:14;86.50;;;38.05;;
39188;SDS011;24915;50.858;4.376;2022-12-05T06:54:40;90.80;;;39.03;;
39188;SDS011;24915;50.858;4.376;2022-12-05T06:57:05;88.45;;;38.88;;
39188;SDS011;24915;50.858;4.376;2022-12-05T06:59:31;79.32;;;36.80;;
39188;SDS011;24915;50.858;4.376;2022-12-05T07:01:57;100.50;;;39.08;;
39188;SDS011;24915;50.858;4.376;2022-12-05T07:04:22;85.38;;;36.67;;
39188;SDS011;24915;50.858;4.376;2022-12-05T07:06:48;89.05;;;38.65;;
39188;SDS011;24915;50.858;4.376;2022-12-05T07:09:16;87.95;;;38.78;;
39188;SDS011;24915;50.858;4.376;2022-12-05T07:11:45;87.78;;;37.28;;
39188;SDS011;24915;50.858;4.376;2022-12-05T07:14:14;87.20;;;37.20;;
39188;SDS011;24915;50.858;4.376;2022-12-05T07:16:40;87.20;;;38.13;;
39188;SDS011;24915;50.858;4.376;2022-12-05T07:19:06;91.10;;;40.33;;
39188;SDS011;24915;50.858;4.376;2022-12-05T07:21:31;90.47;;;39.00;;
39188;SDS011;24915;50.858;4.376;2022-12-05T07:23:57;89.15;;;38.38;;
39188;SDS011;24915;50.858;4.376;2022-12-05T07:26:23;80.03;;;37.60;;
39188;SDS011;24915;50.858;4.376;2022-12-05T07:28:49;83.93;;;36.65;;
39188;SDS011;24915;50.858;4.376;2022-12-05T07:31:19;87.63;;;37.75;;
39188;SDS011;24915;50.858;4.376;2022-12-05T07:33:46;87.45;;;38.67;;
39188;SDS011;24915;50.858;4.376;2022-12-05T07:36:14;85.82;;;38.30;;
39188;SDS011;24915;50.858;4.376;2022-12-05T07:38:41;97.18;;;40.00;;
39188;SDS011;24915;50.858;4.376;2022-12-05T07:44:02;99.13;;;41.33;;
39188;SDS011;24915;50.858;4.376;2022-12-05T07:46:28;104.15;;;40.03;;
39188;SDS011;24915;50.858;4.376;2022-12-05T07:48:54;100.22;;;40.30;;
39188;SDS011;24915;50.858;4.376;2022-12-05T07:51:20;88.20;;;38.65;;
39188;SDS011;24915;50.858;4.376;2022-12-05T07:53:46;93.40;;;39.72;;
39188;SDS011;24915;50.858;4.376;2022-12-05T07:56:13;91.82;;;39.38;;
39188;SDS011;24915;50.858;4.376;2022-12-05T07:58:41;100.47;;;40.78;;
39188;SDS011;24915;50.858;4.376;2022-12-05T08:01:12;94.07;;;39.10;;
39188;SDS011;24915;50.858;4.376;2022-12-05T08:03:49;86.30;;;37.30;;
39188;SDS011;24915;50.858;4.376;2022-12-05T08:06:18;86.30;;;36.40;;
39188;SDS011;24915;50.858;4.376;2022-12-05T08:08:46;84.68;;;38.33;;
39188;SDS011;24915;50.858;4.376;2022-12-05T08:11:16;92.38;;;38.28;;
39188;SDS011;24915;50.858;4.376;2022-12-05T08:13:44;91.55;;;38.47;;
39188;SDS011;24915;50.858;4.376;2022-12-05T08:16:14;94.47;;;37.20;;
39188;SDS011;24915;50.858;4.376;2022-12-05T08:18:42;89.88;;;35.65;;
39188;SDS011;24915;50.858;4.376;2022-12-05T08:21:12;86.65;;;36.20;;
39188;SDS011;24915;50.858;4.376;2022-12-05T08:23:42;83.28;;;35.78;;
39188;SDS011;24915;50.858;4.376;2022-12-05T08:26:13;82.82;;;37.25;;
39188;SDS011;24915;50.858;4.376;2022-12-05T08:28:41;82.05;;;35.50;;
39188;SDS011;24915;50.858;4.376;2022-12-05T08:33:34;87.68;;;36.20;;
39188;SDS011;24915;50.858;4.376;2022-12-05T08:36:01;76.32;;;34.90;;
39188;SDS011;24915;50.858;4.376;2022-12-05T08:38:28;75.20;;;33.55;;
39188;SDS011;24915;50.858;4.376;2022-12-05T08:40:54;76.80;;;34.83;;
39188;SDS011;24915;50.858;4.376;2022-12-05T08:43:20;79.32;;;35.10;;
39188;SDS011;24915;50.858;4.376;2022-12-05T08:45:49;69.07;;;32.50;;
39188;SDS011;24915;50.858;4.376;2022-12-05T08:48:16;72.85;;;31.73;;
39188;SDS011;24915;50.858;4.376;2022-12-05T08:50:41;74.68;;;34.03;;
39188;SDS011;24915;50.858;4.376;2022-12-05T08:53:07;69.68;;;33.88;;
39188;SDS011;24915;50.858;4.376;2022-12-05T08:55:33;64.75;;;31.80;;
39188;SDS011;24915;50.858;4.376;2022-12-05T08:57:59;69.03;;;32.28;;
39188;SDS011;24915;50.858;4.376;2022-12-05T09:00:25;68.20;;;31.38;;
39188;SDS011;24915;50.858;4.376;2022-12-05T09:02:50;56.53;;;30.15;;
39188;SDS011;24915;50.858;4.376;2022-12-05T09:05:16;60.25;;;30.40;;
39188;SDS011;24915;50.858;4.376;2022-12-05T09:07:42;59.00;;;30.95;;
39188;SDS011;24915;50.858;4.376;2022-12-05T09:10:10;62.05;;;31.23;;
39188;SDS011;24915;50.858;4.376;2022-12-05T09:12:36;62.05;;;30.25;;
39188;SDS011;24915;50.858;4.376;2022-12-05T09:15:04;54.67;;;29.30;;
39188;SDS011;24915;50.858;4.376;2022-12-05T09:17:31;54.10;;;29.15;;
39188;SDS011;24915;50.858;4.376;2022-12-05T09:19:56;62.38;;;30.33;;
39188;SDS011;24915;50.858;4.376;2022-12-05T09:22:22;52.67;;;28.58;;
39188;SDS011;24915;50.858;4.376;2022-12-05T09:24:48;56.85;;;29.83;;
39188;SDS011;24915;50.858;4.376;2022-12-05T09:27:14;50.78;;;28.92;;
39188;SDS011;24915;50.858;4.376;2022-12-05T09:29:40;57.17;;;27.75;;
39188;SDS011;24915;50.858;4.376;2022-12-05T09:32:06;54.47;;;26.80;;
39188;SDS011;24915;50.858;4.376;2022-12-05T09:34:32;45.55;;;25.95;;
39188;SDS011;24915;50.858;4.376;2022-12-05T09:36:59;47.95;;;25.88;;
39188;SDS011;24915;50.858;4.376;2022-12-05T09:39:25;50.75;;;27.17;;
39188;SDS011;24915;50.858;4.376;2022-12-05T09:44:40;40.20;;;22.60;;
39188;SDS011;24915;50.858;4.376;2022-12-05T09:47:30;42.40;;;23.70;;
39188;SDS011;24915;50.858;4.376;2022-12-05T09:53:23;42.28;;;24.10;;
39188;SDS011;24915;50.858;4.376;2022-12-05T09:58:02;44.72;;;24.83;;
39188;SDS011;24915;50.858;4.376;2022-12-05T10:00:36;39.72;;;23.25;;
39188;SDS011;24915;50.858;4.376;2022-12-05T10:03:11;45.80;;;24.10;;
39188;SDS011;24915;50.858;4.376;2022-12-05T10:08:48;37.33;;;23.33;;
39188;SDS011;24915;50.858;4.376;2022-12-05T10:11:34;39.88;;;23.45;;
39188;SDS011;24915;50.858;4.376;2022-12-05T10:16:55;47.70;;;26.45;;
39188;SDS011;24915;50.858;4.376;2022-12-05T10:19:28;44.13;;;25.85;;
39188;SDS011;24915;50.858;4.376;2022-12-05T10:22:00;45.90;;;26.02;;
39188;SDS011;24915;50.858;4.376;2022-12-05T10:24:31;43.88;;;26.17;;
39188;SDS011;24915;50.858;4.376;2022-12-05T10:27:01;46.97;;;26.92;;
39188;SDS011;24915;50.858;4.376;2022-12-05T10:29:32;50.10;;;28.17;;
39188;SDS011;24915;50.858;4.376;2022-12-05T10:32:04;38.67;;;25.35;;
39188;SDS011;24915;50.858;4.376;2022-12-05T10:34:38;40.15;;;24.35;;
39188;SDS011;24915;50.858;4.376;2022-12-05T10:37:15;40.60;;;23.73;;
39188;SDS011;24915;50.858;4.376;2022-12-05T10:39:46;42.78;;;24.20;;
39188;SDS011;24915;50.858;4.376;2022-12-05T10:42:24;42.88;;;24.58;;
39188;SDS011;24915;50.858;4.376;2022-12-05T10:44:56;42.17;;;22.55;;
39188;SDS011;24915;50.858;4.376;2022-12-05T10:47:25;37.90;;;20.42;;
39188;SDS011;24915;50.858;4.376;2022-12-05T10:49:51;34.45;;;21.05;;
39188;SDS011;24915;50.858;4.376;2022-12-05T10:52:19;34.65;;;20.88;;
39188;SDS011;24915;50.858;4.376;2022-12-05T10:54:46;30.50;;;18.92;;
39188;SDS011;24915;50.858;4.376;2022-12-05T10:57:19;23.63;;;15.13;;
39188;SDS011;24915;50.858;4.376;2022-12-05T10:59:47;30.80;;;19.23;;
39188;SDS011;24915;50.858;4.376;2022-12-05T11:02:23;34.13;;;20.77;;
39188;SDS011;24915;50.858;4.376;2022-12-05T11:04:51;34.13;;;19.75;;
39188;SDS011;24915;50.858;4.376;2022-12-05T11:07:31;35.45;;;20.38;;
39188;SDS011;24915;50.858;4.376;2022-12-05T11:10:01;32.58;;;19.65;;
39188;SDS011;24915;50.858;4.376;2022-12-05T11:12:35;30.67;;;19.25;;
39188;SDS011;24915;50.858;4.376;2022-12-05T11:17:41;30.05;;;18.40;;
39188;SDS011;24915;50.858;4.376;2022-12-05T11:22:45;26.08;;;17.25;;
39188;SDS011;24915;50.858;4.376;2022-12-05T11:27:54;30.20;;;18.08;;
39188;SDS011;24915;50.858;4.376;2022-12-05T11:30:21;30.58;;;18.98;;
39188;SDS011;24915;50.858;4.376;2022-12-05T11:32:50;27.80;;;17.77;;
39188;SDS011;24915;50.858;4.376;2022-12-05T11:35:40;27.52;;;16.75;;
39188;SDS011;24915;50.858;4.376;2022-12-05T11:38:08;26.48;;;16.65;;
39188;SDS011;24915;50.858;4.376;2022-12-05T11:40:38;25.92;;;16.33;;
39188;SDS011;24915;50.858;4.376;2022-12-05T11:51:43;27.65;;;17.23;;
39188;SDS011;24915;50.858;4.376;2022-12-05T12:08:09;27.65;;;18.15;;
39188;SDS011;24915;50.858;4.376;2022-12-05T12:26:53;31.60;;;19.90;;
39188;SDS011;24915;50.858;4.376;2022-12-05T12:32:42;32.83;;;20.35;;
39188;SDS011;24915;50.858;4.376;2022-12-05T12:37:56;35.20;;;21.00;;
39188;SDS011;24915;50.858;4.376;2022-12-05T12:40:38;34.63;;;21.73;;
39188;SDS011;24915;50.858;4.376;2022-12-05T12:51:00;36.00;;;22.35;;
39188;SDS011;24915;50.858;4.376;2022-12-05T12:53:30;35.50;;;21.65;;
39188;SDS011;24915;50.858;4.376;2022-12-05T13:01:54;35.55;;;21.88;;
39188;SDS011;24915;50.858;4.376;2022-12-05T13:07:07;34.80;;;22.30;;
39188;SDS011;24915;50.858;4.376;2022-12-05T13:10:24;32.33;;;20.70;;
39188;SDS011;24915;50.858;4.376;2022-12-05T13:12:32;37.10;;;21.27;;
39188;SDS011;24915;50.858;4.376;2022-12-05T13:15:06;33.67;;;21.08;;
39188;SDS011;24915;50.858;4.376;2022-12-05T13:17:38;32.20;;;20.80;;
39188;SDS011;24915;50.858;4.376;2022-12-05T13:20:13;29.92;;;19.23;;
39188;SDS011;24915;50.858;4.376;2022-12-05T13:22:44;33.58;;;20.25;;
39188;SDS011;24915;50.858;4.376;2022-12-05T13:25:14;31.42;;;19.50;;
39188;SDS011;24915;50.858;4.376;2022-12-05T13:27:52;34.60;;;19.60;;
39188;SDS011;24915;50.858;4.376;2022-12-05T13:30:22;30.15;;;19.73;;
39188;SDS011;24915;50.858;4.376;2022-12-05T13:32:56;27.52;;;18.90;;
39188;SDS011;24915;50.858;4.376;2022-12-05T13:35:30;32.45;;;19.27;;
39188;SDS011;24915;50.858;4.376;2022-12-05T13:38:27;28.77;;;19.52;;
39188;SDS011;24915;50.858;4.376;2022-12-05T13:41:14;26.30;;;17.85;;
39188;SDS011;24915;50.858;4.376;2022-12-05T13:43:59;30.30;;;19.85;;
39188;SDS011;24915;50.858;4.376;2022-12-05T13:46:29;30.63;;;18.98;;
39188;SDS011;24915;50.858;4.376;2022-12-05T13:49:01;32.28;;;20.17;;
39188;SDS011;24915;50.858;4.376;2022-12-05T13:51:36;31.17;;;19.48;;
39188;SDS011;24915;50.858;4.376;2022-12-05T13:54:11;31.70;;;20.35;;
39188;SDS011;24915;50.858;4.376;2022-12-05T14:07:50;35.90;;;22.30;;
39188;SDS011;24915;50.858;4.376;2022-12-05T14:10:20;34.10;;;21.60;;
39188;SDS011;24915;50.858;4.376;2022-12-05T14:12:53;34.30;;;21.15;;
39188;SDS011;24915;50.858;4.376;2022-12-05T14:18:12;34.42;;;21.35;;
39188;SDS011;24915;50.858;4.376;2022-12-05T14:31:16;37.80;;;22.65;;
39188;SDS011;24915;50.858;4.376;2022-12-05T14:36:59;34.70;;;22.30;;
39188;SDS011;24915;50.858;4.376;2022-12-05T14:39:36;33.13;;;21.92;;
39188;SDS011;24915;50.858;4.376;2022-12-05T14:44:52;35.80;;;22.73;;
39188;SDS011;24915;50.858;4.376;2022-12-05T14:47:25;34.53;;;21.80;;
39188;SDS011;24915;50.858;4.376;2022-12-05T14:53:44;37.95;;;22.98;;
39188;SDS011;24915;50.858;4.376;2022-12-05T15:06:24;40.55;;;24.67;;
39188;SDS011;24915;50.858;4.376;2022-12-05T15:08:51;40.10;;;23.92;;
39188;SDS011;24915;50.858;4.376;2022-12-05T15:11:21;40.45;;;23.98;;
39188;SDS011;24915;50.858;4.376;2022-12-05T15:14:10;49.35;;;26.77;;
39188;SDS011;24915;50.858;4.376;2022-12-05T15:16:45;39.95;;;24.48;;
39188;SDS011;24915;50.858;4.376;2022-12-05T15:20:03;46.90;;;27.25;;
39188;SDS011;24915;50.858;4.376;2022-12-05T15:22:28;52.55;;;29.20;;
39188;SDS011;24915;50.858;4.376;2022-12-05T15:25:12;54.85;;;29.85;;
39188;SDS011;24915;50.858;4.376;2022-12-05T15:27:38;53.75;;;31.20;;
39188;SDS011;24915;50.858;4.376;2022-12-05T15:30:04;55.28;;;32.00;;
39188;SDS011;24915;50.858;4.376;2022-12-05T15:32:41;62.90;;;32.05;;
39188;SDS011;24915;50.858;4.376;2022-12-05T15:35:08;65.47;;;32.47;;
39188;SDS011;24915;50.858;4.376;2022-12-05T15:37:52;64.55;;;33.95;;
39188;SDS011;24915;50.858;4.376;2022-12-05T15:40:24;60.20;;;32.55;;
39188;SDS011;24915;50.858;4.376;2022-12-05T15:42:53;65.22;;;33.92;;
39188;SDS011;24915;50.858;4.376;2022-12-05T15:45:25;63.08;;;34.75;;
39188;SDS011;24915;50.858;4.376;2022-12-05T15:47:56;72.55;;;35.58;;
39188;SDS011;24915;50.858;4.376;2022-12-05T15:50:39;63.13;;;34.15;;
39188;SDS011;24915;50.858;4.376;2022-12-05T15:53:17;70.80;;;38.78;;
39188;SDS011;24915;50.858;4.376;2022-12-05T15:55:54;69.03;;;35.53;;
39188;SDS011;24915;50.858;4.376;2022-12-05T16:03:43;75.75;;;38.47;;
39188;SDS011;24915;50.858;4.376;2022-12-05T16:06:26;78.35;;;40.50;;
39188;SDS011;24915;50.858;4.376;2022-12-05T16:09:06;83.45;;;41.05;;
39188;SDS011;24915;50.858;4.376;2022-12-05T16:11:33;76.45;;;39.13;;
39188;SDS011;24915;50.858;4.376;2022-12-05T16:14:02;82.88;;;40.13;;
39188;SDS011;24915;50.858;4.376;2022-12-05T16:16:32;84.65;;;43.03;;
39188;SDS011;24915;50.858;4.376;2022-12-05T16:19:04;91.97;;;43.40;;
39188;SDS011;24915;50.858;4.376;2022-12-05T16:21:37;87.47;;;41.80;;
39188;SDS011;24915;50.858;4.376;2022-12-05T16:24:11;94.20;;;41.83;;
39188;SDS011;24915;50.858;4.376;2022-12-05T16:26:40;81.50;;;40.13;;
39188;SDS011;24915;50.858;4.376;2022-12-05T16:29:06;84.93;;;41.22;;
39188;SDS011;24915;50.858;4.376;2022-12-05T16:31:59;81.68;;;40.08;;
39188;SDS011;24915;50.858;4.376;2022-12-05T16:34:27;89.60;;;41.00;;
39188;SDS011;24915;50.858;4.376;2022-12-05T16:36:56;83.63;;;42.50;;
39188;SDS011;24915;50.858;4.376;2022-12-05T16:39:22;83.13;;;40.42;;
39188;SDS011;24915;50.858;4.376;2022-12-05T16:41:50;81.40;;;40.45;;
39188;SDS011;24915;50.858;4.376;2022-12-05T16:47:21;78.80;;;40.63;;
39188;SDS011;24915;50.858;4.376;2022-12-05T16:49:48;82.57;;;43.17;;
39188;SDS011;24915;50.858;4.376;2022-12-05T16:52:14;78.88;;;40.63;;
39188;SDS011;24915;50.858;4.376;2022-12-05T16:54:41;77.70;;;39.25;;
39188;SDS011;24915;50.858;4.376;2022-12-05T16:57:11;75.22;;;39.25;;
39188;SDS011;24915;50.858;4.376;2022-12-05T16:59:38;72.90;;;38.03;;
39188;SDS011;24915;50.858;4.376;2022-12-05T17:02:09;76.38;;;39.10;;
39188;SDS011;24915;50.858;4.376;2022-12-05T17:04:37;71.40;;;38.45;;
39188;SDS011;24915;50.858;4.376;2022-12-05T17:07:03;75.43;;;39.25;;
39188;SDS011;24915;50.858;4.376;2022-12-05T17:09:28;72.72;;;38.97;;
39188;SDS011;24915;50.858;4.376;2022-12-05T17:11:56;75.32;;;38.70;;
39188;SDS011;24915;50.858;4.376;2022-12-05T17:14:28;71.70;;;39.08;;
39188;SDS011;24915;50.858;4.376;2022-12-05T17:16:54;78.15;;;38.70;;
39188;SDS011;24915;50.858;4.376;2022-12-05T17:19:19;74.85;;;40.65;;
39188;SDS011;24915;50.858;4.376;2022-12-05T17:21:45;84.65;;;43.45;;
39188;SDS011;24915;50.858;4.376;2022-12-05T17:24:15;96.95;;;47.72;;
39188;SDS011;24915;50.858;4.376;2022-12-05T17:26:42;90.50;;;46.65;;
39188;SDS011;24915;50.858;4.376;2022-12-05T17:29:08;100.55;;;48.08;;
39188;SDS011;24915;50.858;4.376;2022-12-05T17:31:34;91.97;;;47.38;;
39188;SDS011;24915;50.858;4.376;2022-12-05T17:34:00;94.95;;;47.83;;
39188;SDS011;24915;50.858;4.376;2022-12-05T17:36:26;107.10;;;50.40;;
39188;SDS011;24915;50.858;4.376;2022-12-05T17:38:52;100.63;;;49.83;;
39188;SDS011;24915;50.858;4.376;2022-12-05T17:41:19;88.50;;;47.08;;
39188;SDS011;24915;50.858;4.376;2022-12-05T17:43:49;87.65;;;45.65;;
39188;SDS011;24915;50.858;4.376;2022-12-05T17:46:16;76.78;;;42.42;;